Time;durP1;ratioP1;P1;durP2;ratioP2;P2;SDS_P1;SDS_P2;PMS_P1;PMS_P2;Temp;Humidity;BMP_temperature;BMP_pressure;BME280_temperature;BME280_humidity;BME280_pressure;Samples;Min_cycle;Max_cycle;Signal;HPM_P1;HPM_P2
2022/07/16 08:41:09;;;;;;;7.93;7.05;;;;;;;;;;6098945;23;21091;-83
2022/07/16 08:43:37;;;;;;;8.30;7.47;;;;;;;;;;6187539;23;20025;-83
2022/07/16 08:46:02;;;;;;;8.05;7.25;;;;;;;;;;6168236;23;20076;-83
2022/07/16 08:48:30;;;;;;;8.43;7.50;;;;;;;;;;6167536;23;20476;-83
2022/07/16 08:50:58;;;;;;;7.93;6.95;;;;;;;;;;6168035;23;20017;-83
2022/07/16 08:53:24;;;;;;;10.20;7.40;;;;;;;;;;6168022;23;20006;-83
2022/07/16 08:55:52;;;;;;;8.55;7.85;;;;;;;;;;6142779;23;20010;-82
2022/07/16 08:58:18;;;;;;;10.13;8.52;;;;;;;;;;6168565;23;20008;-82
2022/07/16 09:00:45;;;;;;;9.02;8.13;;;;;;;;;;6168353;23;20021;-83
2022/07/16 09:03:14;;;;;;;8.63;7.90;;;;;;;;;;6168008;23;20062;-83
2022/07/16 09:05:40;;;;;;;9.27;7.82;;;;;;;;;;6168978;23;20002;-83
2022/07/16 09:08:06;;;;;;;10.13;8.32;;;;;;;;;;6169372;23;20002;-84
2022/07/16 09:10:36;;;;;;;8.48;7.63;;;;;;;;;;6170539;23;20053;-84
2022/07/16 09:13:03;;;;;;;8.73;7.93;;;;;;;;;;6168862;23;20013;-84
2022/07/16 09:15:33;;;;;;;8.30;7.50;;;;;;;;;;6169712;23;20009;-84
2022/07/16 09:18:25;;;;;;;8.68;7.88;;;;;;;;;;6168070;23;19998;-85
2022/07/16 09:21:00;;;;;;;8.27;7.57;;;;;;;;;;6153197;23;20059;-85
2022/07/16 09:23:32;;;;;;;7.88;7.07;;;;;;;;;;6158904;23;20345;-85
2022/07/16 09:26:03;;;;;;;9.18;7.05;;;;;;;;;;6159098;23;20298;-85
2022/07/16 09:28:50;;;;;;;8.52;7.70;;;;;;;;;;6132587;23;20084;-83
2022/07/16 09:31:53;;;;;;;7.95;7.25;;;;;;;;;;6159040;23;20426;-86
2022/07/16 09:34:20;;;;;;;8.00;7.32;;;;;;;;;;6097427;23;20081;-84
2022/07/16 09:37:02;;;;;;;8.38;7.60;;;;;;;;;;6147333;23;20072;-83
2022/07/16 09:39:32;;;;;;;7.18;6.60;;;;;;;;;;6158764;23;20012;-85
2022/07/16 09:41:58;;;;;;;8.35;7.47;;;;;;;;;;6132562;23;20017;-81
2022/07/16 09:44:26;;;;;;;8.95;8.00;;;;;;;;;;6158489;23;20002;-81
2022/07/16 09:47:07;;;;;;;8.60;7.57;;;;;;;;;;6158672;23;20325;-81
2022/07/16 09:49:37;;;;;;;9.23;7.55;;;;;;;;;;6158723;23;20015;-81
2022/07/16 09:52:04;;;;;;;8.43;7.68;;;;;;;;;;6156920;23;20376;-81
2022/07/16 09:54:38;;;;;;;7.43;6.72;;;;;;;;;;6158865;23;20444;-81
2022/07/16 09:57:15;;;;;;;8.65;7.72;;;;;;;;;;6159041;23;20326;-81
2022/07/16 09:59:42;;;;;;;9.30;8.32;;;;;;;;;;6158476;23;20002;-81
2022/07/16 10:02:07;;;;;;;9.63;8.63;;;;;;;;;;6158335;23;20457;-81
2022/07/16 10:04:34;;;;;;;8.35;7.65;;;;;;;;;;6158567;23;20040;-82
2022/07/16 10:06:59;;;;;;;8.10;7.40;;;;;;;;;;6158462;23;20002;-81
2022/07/16 10:09:25;;;;;;;8.50;7.07;;;;;;;;;;6158295;23;20060;-81
2022/07/16 10:11:57;;;;;;;7.85;7.10;;;;;;;;;;6158263;23;20035;-84
2022/07/16 10:14:24;;;;;;;8.25;7.40;;;;;;;;;;6132086;23;20067;-86
2022/07/16 10:16:49;;;;;;;6.75;6.15;;;;;;;;;;6158279;23;20009;-86
2022/07/16 10:19:15;;;;;;;7.57;6.70;;;;;;;;;;6157431;23;20006;-87
2022/07/16 10:21:49;;;;;;;6.90;6.28;;;;;;;;;;6157871;23;20068;-83
2022/07/16 10:24:14;;;;;;;6.97;6.25;;;;;;;;;;6157676;23;20006;-82
2022/07/16 10:26:39;;;;;;;7.82;7.03;;;;;;;;;;6157899;23;20413;-82
2022/07/16 10:29:06;;;;;;;7.22;6.40;;;;;;;;;;6157962;23;20009;-82
2022/07/16 10:32:27;;;;;;;7.78;7.05;;;;;;;;;;6158261;23;20421;-82
2022/07/16 10:34:35;;;;;;;7.88;6.75;;;;;;;;;;6157354;23;20463;-86
2022/07/16 10:37:01;;;;;;;7.45;6.65;;;;;;;;;;6131623;23;20027;-89
2022/07/16 10:39:27;;;;;;;6.75;6.25;;;;;;;;;;6131333;23;20017;-88
2022/07/16 10:41:54;;;;;;;7.57;6.60;;;;;;;;;;6132056;23;20440;-84
2022/07/16 10:44:22;;;;;;;6.70;6.10;;;;;;;;;;6157136;23;20012;-86
2022/07/16 10:46:57;;;;;;;7.38;6.70;;;;;;;;;;6157707;23;20006;-86
2022/07/16 10:49:24;;;;;;;8.15;7.43;;;;;;;;;;6157359;23;20421;-86
2022/07/16 10:51:57;;;;;;;8.05;7.25;;;;;;;;;;6131046;23;20006;-87
2022/07/16 10:54:35;;;;;;;7.05;6.35;;;;;;;;;;6131082;23;20006;-86
2022/07/16 10:57:11;;;;;;;7.63;6.57;;;;;;;;;;6157641;23;20002;-86
2022/07/16 10:59:41;;;;;;;7.78;7.05;;;;;;;;;;6157312;23;20336;-86
2022/07/16 11:02:09;;;;;;;7.93;6.78;;;;;;;;;;6131192;23;20009;-87
2022/07/16 11:04:44;;;;;;;8.00;6.73;;;;;;;;;;6157406;23;20005;-86
2022/07/16 11:07:18;;;;;;;8.10;6.13;;;;;;;;;;6131637;23;20337;-86
2022/07/16 11:09:48;;;;;;;6.57;5.97;;;;;;;;;;6157443;23;20009;-81
2022/07/16 11:12:24;;;;;;;6.43;5.85;;;;;;;;;;6157165;23;20005;-82
2022/07/16 11:14:51;;;;;;;5.90;5.38;;;;;;;;;;6156832;23;20006;-81
2022/07/16 11:17:21;;;;;;;6.40;5.53;;;;;;;;;;6157438;23;20302;-81
2022/07/16 11:19:52;;;;;;;5.60;5.00;;;;;;;;;;6157239;23;20028;-82
2022/07/16 11:22:22;;;;;;;5.18;4.75;;;;;;;;;;6157104;23;20081;-79
2022/07/16 11:24:51;;;;;;;5.30;4.78;;;;;;;;;;6157013;23;20002;-79
2022/07/16 11:27:17;;;;;;;5.25;4.68;;;;;;;;;;6156844;23;20310;-79
2022/07/16 11:29:43;;;;;;;4.50;4.20;;;;;;;;;;6130244;23;20010;-79
2022/07/16 11:32:13;;;;;;;4.60;4.20;;;;;;;;;;6156345;23;20377;-79
2022/07/16 11:34:38;;;;;;;4.75;4.35;;;;;;;;;;6156442;23;20040;-79
2022/07/16 11:37:04;;;;;;;4.70;3.67;;;;;;;;;;6156352;23;20002;-80
2022/07/16 11:39:29;;;;;;;4.75;4.35;;;;;;;;;;6156323;23;20085;-79
2022/07/16 11:41:58;;;;;;;5.53;3.65;;;;;;;;;;6156139;23;20017;-79
2022/07/16 11:44:29;;;;;;;4.90;3.30;;;;;;;;;;6156202;23;20014;-80
2022/07/16 11:46:59;;;;;;;3.65;3.35;;;;;;;;;;6156326;23;20002;-80
2022/07/16 11:49:36;;;;;;;4.47;3.50;;;;;;;;;;6156451;23;20032;-80
2022/07/16 11:52:09;;;;;;;4.28;3.03;;;;;;;;;;6156391;23;20004;-79
2022/07/16 11:54:42;;;;;;;5.68;3.65;;;;;;;;;;6156660;23;20044;-80
2022/07/16 11:57:10;;;;;;;3.90;3.60;;;;;;;;;;6156360;23;20002;-79
2022/07/16 11:59:41;;;;;;;5.32;3.50;;;;;;;;;;6156340;23;20110;-79
2022/07/16 12:02:09;;;;;;;4.18;3.30;;;;;;;;;;6130186;23;20463;-79
2022/07/16 12:04:39;;;;;;;4.80;3.40;;;;;;;;;;6156232;23;20002;-79
2022/07/16 12:07:07;;;;;;;4.10;3.35;;;;;;;;;;6156289;23;20365;-79
2022/07/16 12:09:46;;;;;;;4.05;3.55;;;;;;;;;;6154766;23;20005;-79
2022/07/16 12:12:22;;;;;;;;;;;;;;;;;;6156885;23;20006;-79
2022/07/16 12:14:56;;;;;;;3.95;3.65;;;;;;;;;;6130063;23;19909;-79
2022/07/16 12:17:25;;;;;;;5.07;4.30;;;;;;;;;;6156303;23;20405;-79
2022/07/16 12:20:10;;;;;;;7.22;4.22;;;;;;;;;;6156424;23;20088;-79
2022/07/16 12:23:01;;;;;;;4.20;3.90;;;;;;;;;;6156371;23;20001;-79
2022/07/16 12:25:27;;;;;;;4.78;4.18;;;;;;;;;;6153101;23;20084;-79
2022/07/16 12:27:54;;;;;;;5.20;4.68;;;;;;;;;;6155974;23;20044;-78
2022/07/16 12:30:29;;;;;;;5.25;4.60;;;;;;;;;;6156312;23;20001;-79
2022/07/16 12:32:55;;;;;;;5.40;4.32;;;;;;;;;;6156312;23;20010;-79
2022/07/16 12:35:41;;;;;;;7.80;4.55;;;;;;;;;;6156102;23;20080;-79
2022/07/16 12:38:08;;;;;;;4.70;4.25;;;;;;;;;;6130046;23;20029;-79
2022/07/16 12:40:34;;;;;;;8.75;4.68;;;;;;;;;;6156429;23;20017;-79
2022/07/16 12:43:01;;;;;;;10.98;5.00;;;;;;;;;;6157301;23;20018;-80
2022/07/16 12:45:28;;;;;;;5.13;4.72;;;;;;;;;;6158223;23;20080;-80
2022/07/16 12:47:53;;;;;;;7.00;4.70;;;;;;;;;;6158135;23;20001;-79
2022/07/16 12:50:19;;;;;;;6.18;4.82;;;;;;;;;;6157892;23;20057;-79
2022/07/16 12:52:45;;;;;;;6.47;4.78;;;;;;;;;;6157918;23;20010;-79
2022/07/16 13:00:38;;;;;;;5.93;5.32;;;;;;;;;;6158127;23;20028;-79
2022/07/16 13:03:04;;;;;;;5.38;4.47;;;;;;;;;;6157983;23;20432;-79
2022/07/16 13:05:30;;;;;;;8.27;4.68;;;;;;;;;;6157628;23;20009;-79
2022/07/16 13:07:56;;;;;;;6.00;5.38;;;;;;;;;;6157696;23;20014;-79
2022/07/16 13:10:21;;;;;;;8.02;4.72;;;;;;;;;;6158373;23;20056;-79
2022/07/16 13:12:47;;;;;;;4.85;4.45;;;;;;;;;;6158055;23;20005;-79
2022/07/16 13:15:12;;;;;;;6.40;4.80;;;;;;;;;;6157762;23;20001;-79
2022/07/16 13:17:38;;;;;;;8.40;4.65;;;;;;;;;;6157663;23;20036;-79
2022/07/16 13:20:04;;;;;;;5.45;4.95;;;;;;;;;;6157689;23;20087;-79
2022/07/16 13:22:29;;;;;;;9.63;4.68;;;;;;;;;;6157847;23;20001;-79
2022/07/16 13:24:55;;;;;;;6.60;4.80;;;;;;;;;;6157673;23;20016;-79
2022/07/16 13:27:20;;;;;;;5.38;4.88;;;;;;;;;;6157579;23;20033;-79
2022/07/16 13:29:46;;;;;;;6.68;4.70;;;;;;;;;;6157638;23;20043;-79
2022/07/16 13:32:11;;;;;;;4.93;4.40;;;;;;;;;;6131226;23;20004;-81
2022/07/16 13:34:37;;;;;;;5.10;4.70;;;;;;;;;;6156346;23;19998;-81
2022/07/16 13:37:02;;;;;;;5.10;4.60;;;;;;;;;;6157558;23;20009;-81
2022/07/16 13:39:29;;;;;;;15.98;5.35;;;;;;;;;;6157380;23;20414;-81
2022/07/16 13:41:55;;;;;;;5.22;4.72;;;;;;;;;;6157159;23;20016;-80
2022/07/16 13:44:22;;;;;;;6.10;4.70;;;;;;;;;;6157237;23;20005;-81
2022/07/16 13:46:47;;;;;;;6.40;4.90;;;;;;;;;;6157479;23;20024;-81
2022/07/16 13:49:14;;;;;;;5.22;4.72;;;;;;;;;;6157210;23;20355;-81
2022/07/16 13:51:39;;;;;;;9.60;5.10;;;;;;;;;;6157267;23;20009;-81
2022/07/16 13:54:05;;;;;;;5.13;4.55;;;;;;;;;;6156802;23;20013;-81
2022/07/16 13:56:31;;;;;;;5.50;5.00;;;;;;;;;;6157472;23;20076;-81
2022/07/16 13:58:56;;;;;;;5.75;4.80;;;;;;;;;;6157304;23;20013;-81
2022/07/16 14:01:21;;;;;;;6.32;4.32;;;;;;;;;;6130971;23;20033;-82
2022/07/16 14:03:47;;;;;;;5.90;5.07;;;;;;;;;;6156896;23;20089;-81
2022/07/16 14:06:12;;;;;;;5.25;4.68;;;;;;;;;;6157187;23;20010;-81
2022/07/16 14:08:38;;;;;;;5.43;4.80;;;;;;;;;;6131143;23;20001;-81
2022/07/16 14:11:03;;;;;;;5.82;4.95;;;;;;;;;;6157190;23;20013;-81
2022/07/16 14:13:29;;;;;;;4.50;4.10;;;;;;;;;;6156874;23;20333;-81
2022/07/16 14:15:54;;;;;;;5.20;4.38;;;;;;;;;;6157088;23;20001;-80
2022/07/16 14:18:20;;;;;;;4.57;4.25;;;;;;;;;;6157186;23;19998;-81
2022/07/16 14:20:45;;;;;;;6.32;4.40;;;;;;;;;;6157346;23;20010;-81
2022/07/16 14:23:12;;;;;;;4.82;4.43;;;;;;;;;;6157269;23;20405;-82
2022/07/16 14:25:38;;;;;;;5.50;5.05;;;;;;;;;;6157037;23;20005;-81
2022/07/16 14:28:06;;;;;;;5.38;4.88;;;;;;;;;;6156980;23;20001;-81
2022/07/16 14:30:33;;;;;;;8.45;4.82;;;;;;;;;;6156991;23;20048;-81
2022/07/16 14:32:58;;;;;;;6.45;4.97;;;;;;;;;;6156774;23;20005;-81
2022/07/16 14:35:24;;;;;;;6.85;5.10;;;;;;;;;;6130717;23;20023;-81
2022/07/16 14:37:49;;;;;;;6.03;4.60;;;;;;;;;;6156827;23;20002;-82
2022/07/16 14:40:16;;;;;;;6.45;4.75;;;;;;;;;;6157110;23;20006;-82
2022/07/16 14:42:44;;;;;;;7.28;4.85;;;;;;;;;;6156836;23;20017;-81
2022/07/16 14:45:13;;;;;;;7.55;5.03;;;;;;;;;;6156774;23;20005;-81
2022/07/16 14:47:38;;;;;;;;;;;;;;;;;;6157095;23;20425;-81
2022/07/16 14:50:05;;;;;;;5.68;5.18;;;;;;;;;;6156819;23;19908;-87
2022/07/16 14:52:30;;;;;;;6.85;5.10;;;;;;;;;;6157089;23;20012;-86
2022/07/16 14:54:57;;;;;;;5.60;5.10;;;;;;;;;;6156688;23;20005;-85
2022/07/16 14:57:22;;;;;;;5.15;4.68;;;;;;;;;;6156752;23;20076;-80
2022/07/16 14:59:48;;;;;;;5.53;4.88;;;;;;;;;;6156871;23;20417;-81
2022/07/16 15:02:13;;;;;;;5.65;5.07;;;;;;;;;;6156632;23;20006;-81
2022/07/16 15:04:39;;;;;;;5.97;4.82;;;;;;;;;;6156597;23;20024;-81
2022/07/16 15:07:05;;;;;;;6.00;4.70;;;;;;;;;;6156787;23;20028;-81
2022/07/16 15:09:31;;;;;;;6.70;5.20;;;;;;;;;;6156515;23;20009;-81
2022/07/16 15:11:56;;;;;;;6.50;5.00;;;;;;;;;;6156721;23;20005;-81
2022/07/16 15:14:22;;;;;;;6.45;5.82;;;;;;;;;;6156494;23;20016;-80
2022/07/16 15:16:48;;;;;;;5.80;5.30;;;;;;;;;;6156844;23;20001;-80
2022/07/16 15:19:13;;;;;;;5.63;5.15;;;;;;;;;;6156682;23;20009;-81
2022/07/16 15:21:39;;;;;;;7.00;5.10;;;;;;;;;;6157078;23;20051;-81
2022/07/16 15:24:05;;;;;;;5.25;4.85;;;;;;;;;;6155475;23;20012;-81
2022/07/16 15:26:30;;;;;;;6.50;5.03;;;;;;;;;;6156648;23;20008;-84
2022/07/16 15:28:56;;;;;;;9.95;5.55;;;;;;;;;;6156628;23;20013;-84
2022/07/16 15:31:21;;;;;;;5.47;4.95;;;;;;;;;;6156598;23;20068;-85
2022/07/16 15:33:47;;;;;;;6.32;4.85;;;;;;;;;;6156313;23;20032;-84
2022/07/16 15:36:14;;;;;;;5.75;5.10;;;;;;;;;;6130601;23;20358;-84
2022/07/16 18:01:38;;;;;;;5.43;5.03;;;;;;;;;;6168726;23;20045;-81
2022/07/16 18:04:04;;;;;;;5.07;4.68;;;;;;;;;;6157467;23;20021;-78
2022/07/16 18:06:29;;;;;;;5.90;5.40;;;;;;;;;;6157276;23;20010;-84
2022/07/16 18:08:55;;;;;;;5.60;5.13;;;;;;;;;;6130476;23;20009;-81
2022/07/16 18:11:20;;;;;;;6.75;5.78;;;;;;;;;;6128637;23;20006;-80
2022/07/16 18:13:46;;;;;;;6.60;6.00;;;;;;;;;;6127870;23;20006;-82
2022/07/16 18:16:11;;;;;;;6.97;6.30;;;;;;;;;;6127827;23;20036;-82
2022/07/16 18:18:37;;;;;;;6.85;6.25;;;;;;;;;;6127876;23;20372;-83
2022/07/16 18:21:02;;;;;;;8.35;5.65;;;;;;;;;;6127784;23;20005;-80
2022/07/16 18:23:28;;;;;;;5.90;4.90;;;;;;;;;;6127718;23;20030;-80
2022/07/16 18:25:54;;;;;;;5.15;4.75;;;;;;;;;;6127991;23;20030;-82
2022/07/16 18:28:19;;;;;;;5.82;5.43;;;;;;;;;;6127504;23;20006;-87
2022/07/16 18:30:44;;;;;;;6.43;5.90;;;;;;;;;;6125759;23;20010;-88
2022/07/16 18:33:10;;;;;;;7.35;6.38;;;;;;;;;;6127618;23;20041;-87
2022/07/16 18:35:35;;;;;;;8.57;7.57;;;;;;;;;;6127642;23;20407;-88
2022/07/16 18:38:01;;;;;;;7.15;6.32;;;;;;;;;;6127462;23;20002;-89
2022/07/16 18:40:27;;;;;;;6.95;6.35;;;;;;;;;;6127696;23;20002;-88
2022/07/16 18:42:52;;;;;;;6.45;5.95;;;;;;;;;;6127593;23;20009;-88
2022/07/16 18:45:18;;;;;;;7.88;7.18;;;;;;;;;;6127699;23;20012;-88
2022/07/16 18:47:43;;;;;;;7.53;6.68;;;;;;;;;;6125721;23;20429;-82
2022/07/16 18:50:09;;;;;;;7.63;6.63;;;;;;;;;;6125929;23;20060;-84
2022/07/16 18:52:35;;;;;;;6.97;6.28;;;;;;;;;;6127538;23;20010;-83
2022/07/16 18:55:01;;;;;;;6.53;5.93;;;;;;;;;;6127536;23;20078;-82
2022/07/16 18:57:27;;;;;;;6.72;6.15;;;;;;;;;;6127514;23;19998;-81
2022/07/16 18:59:53;;;;;;;7.70;7.00;;;;;;;;;;6127558;23;20039;-81
2022/07/16 19:02:18;;;;;;;7.28;6.68;;;;;;;;;;6147041;23;20091;-81
2022/07/16 19:04:44;;;;;;;5.63;5.22;;;;;;;;;;6156075;23;20064;-81
2022/07/16 19:07:09;;;;;;;6.80;6.20;;;;;;;;;;6157113;23;20452;-81
2022/07/16 19:09:35;;;;;;;6.97;6.28;;;;;;;;;;6156714;23;20006;-83
2022/07/16 19:12:01;;;;;;;7.15;5.80;;;;;;;;;;6156773;23;20008;-83
2022/07/16 19:14:27;;;;;;;6.07;5.55;;;;;;;;;;6156790;23;20033;-83
2022/07/16 19:16:52;;;;;;;6.22;5.78;;;;;;;;;;6156886;23;20006;-83
2022/07/16 19:19:19;;;;;;;7.03;6.47;;;;;;;;;;6156666;23;20436;-83
2022/07/16 19:21:46;;;;;;;7.63;6.55;;;;;;;;;;6157052;23;20010;-83
2022/07/16 19:24:12;;;;;;;5.90;5.40;;;;;;;;;;6156891;23;19998;-83
2022/07/16 19:26:38;;;;;;;6.13;5.63;;;;;;;;;;6156625;23;20008;-84
2022/07/16 19:29:04;;;;;;;6.82;5.60;;;;;;;;;;6156727;23;20321;-83
2022/07/16 19:31:30;;;;;;;6.03;5.57;;;;;;;;;;6156548;23;20012;-81
2022/07/16 19:33:56;;;;;;;6.63;6.07;;;;;;;;;;6156368;23;20009;-80
2022/07/16 19:36:22;;;;;;;6.80;5.97;;;;;;;;;;6156779;23;20005;-80
2022/07/16 19:38:50;;;;;;;7.20;6.50;;;;;;;;;;6156665;23;20008;-80
2022/07/16 19:41:15;;;;;;;9.98;8.88;;;;;;;;;;6156363;23;20005;-79
2022/07/16 19:43:42;;;;;;;8.73;6.68;;;;;;;;;;6156896;23;20025;-80
2022/07/16 19:46:09;;;;;;;5.45;5.05;;;;;;;;;;6156432;23;20009;-80
2022/07/16 19:48:37;;;;;;;6.13;5.63;;;;;;;;;;6156207;23;20368;-80
2022/07/16 19:51:06;;;;;;;6.47;5.90;;;;;;;;;;6130093;23;20365;-83
2022/07/16 19:53:32;;;;;;;;;;;;;;;;;;6156901;23;20013;-81
2022/07/16 19:58:41;;;;;;;6.47;5.88;;;;;;;;;;6156419;23;20060;-83
2022/07/16 20:01:07;;;;;;;6.20;5.60;;;;;;;;;;6156231;23;20017;-82
2022/07/16 20:03:33;;;;;;;7.43;6.68;;;;;;;;;;6156353;23;20006;-83
2022/07/16 20:05:58;;;;;;;6.63;6.05;;;;;;;;;;6130797;23;20079;-82
2022/07/16 20:08:24;;;;;;;6.28;5.75;;;;;;;;;;6156410;23;20479;-81
2022/07/16 20:10:50;;;;;;;6.25;5.72;;;;;;;;;;6130255;23;20092;-85
2022/07/16 20:13:16;;;;;;;6.80;6.20;;;;;;;;;;6156380;23;20084;-81
2022/07/16 20:15:41;;;;;;;6.65;6.05;;;;;;;;;;6155945;23;20084;-79
2022/07/16 20:18:07;;;;;;;7.28;6.00;;;;;;;;;;6156476;23;20002;-80
2022/07/16 20:20:32;;;;;;;6.40;5.80;;;;;;;;;;6156453;23;20006;-79
2022/07/16 20:22:57;;;;;;;7.20;5.90;;;;;;;;;;6156390;23;20005;-80
2022/07/16 20:25:23;;;;;;;7.00;6.32;;;;;;;;;;6156403;23;20008;-80
2022/07/16 20:27:49;;;;;;;7.07;6.45;;;;;;;;;;6156148;23;20001;-80
2022/07/16 20:30:17;;;;;;;7.18;6.53;;;;;;;;;;6156161;23;20076;-80
2022/07/16 20:32:44;;;;;;;7.85;5.53;;;;;;;;;;6156207;23;20007;-80
2022/07/16 20:35:10;;;;;;;6.18;5.60;;;;;;;;;;6156245;23;20361;-80
2022/07/16 20:37:36;;;;;;;6.30;5.70;;;;;;;;;;6156223;23;20006;-80
2022/07/16 20:40:04;;;;;;;6.05;5.55;;;;;;;;;;6156298;23;20093;-81
2022/07/16 20:42:30;;;;;;;6.30;5.78;;;;;;;;;;6155988;23;20009;-79
2022/07/16 20:44:55;;;;;;;6.90;6.20;;;;;;;;;;6156088;23;20109;-80
2022/07/16 20:47:21;;;;;;;6.90;6.30;;;;;;;;;;6156129;23;20008;-80
2022/07/16 20:49:47;;;;;;;7.28;6.60;;;;;;;;;;6155982;23;20005;-80
2022/07/16 20:52:13;;;;;;;6.80;6.20;;;;;;;;;;6156129;23;20491;-80
2022/07/16 20:54:39;;;;;;;6.20;5.70;;;;;;;;;;6156426;23;20005;-82
2022/07/16 20:57:05;;;;;;;5.60;5.10;;;;;;;;;;6156125;23;20357;-79
2022/07/16 20:59:31;;;;;;;5.85;5.35;;;;;;;;;;6155956;23;20118;-80
2022/07/16 21:01:56;;;;;;;6.40;5.90;;;;;;;;;;6156011;23;20418;-80
2022/07/16 21:04:22;;;;;;;7.32;6.63;;;;;;;;;;6157626;23;20005;-80
2022/07/16 21:06:47;;;;;;;7.18;6.55;;;;;;;;;;6157645;23;20001;-80
2022/07/16 21:09:13;;;;;;;7.05;6.47;;;;;;;;;;6158052;23;20008;-81
2022/07/16 21:11:38;;;;;;;6.43;5.80;;;;;;;;;;6157713;23;20011;-81
2022/07/16 21:14:04;;;;;;;5.80;5.30;;;;;;;;;;6157674;23;20329;-81
2022/07/16 21:16:29;;;;;;;6.53;5.93;;;;;;;;;;6157748;23;20036;-81
2022/07/16 21:18:55;;;;;;;6.70;6.18;;;;;;;;;;6157569;23;20025;-80
2022/07/16 21:21:20;;;;;;;6.35;5.80;;;;;;;;;;6157827;23;20005;-80
2022/07/16 21:23:46;;;;;;;6.43;5.78;;;;;;;;;;6157603;23;20072;-80
2022/07/16 21:26:11;;;;;;;6.63;6.03;;;;;;;;;;6157779;23;20002;-80
2022/07/16 21:28:37;;;;;;;7.82;5.63;;;;;;;;;;6157353;23;20009;-80
2022/07/16 21:31:03;;;;;;;6.53;6.03;;;;;;;;;;6157740;23;20005;-80
2022/07/16 21:33:28;;;;;;;6.50;5.97;;;;;;;;;;6157720;23;20006;-81
2022/07/16 21:35:54;;;;;;;6.30;5.80;;;;;;;;;;6157911;23;20056;-80
2022/07/16 21:38:19;;;;;;;6.57;6.05;;;;;;;;;;6157379;23;20052;-80
2022/07/16 21:40:44;;;;;;;6.88;6.15;;;;;;;;;;6131372;23;20064;-81
2022/07/16 21:43:10;;;;;;;8.07;7.38;;;;;;;;;;6157513;23;20052;-80
2022/07/16 21:45:36;;;;;;;6.45;5.78;;;;;;;;;;6157742;23;20008;-81
2022/07/16 21:48:01;;;;;;;6.55;5.90;;;;;;;;;;6157301;23;20012;-80
2022/07/16 21:50:27;;;;;;;7.07;6.38;;;;;;;;;;6157753;23;20001;-81
2022/07/16 21:52:53;;;;;;;5.47;5.07;;;;;;;;;;6157395;23;20053;-82
2022/07/16 21:55:18;;;;;;;6.93;5.93;;;;;;;;;;6157286;23;20425;-81
2022/07/16 21:57:43;;;;;;;6.43;5.75;;;;;;;;;;6157063;23;20006;-83
2022/07/16 22:00:16;;;;;;;6.70;6.03;;;;;;;;;;6157892;23;20033;-82
2022/07/16 22:02:42;;;;;;;6.75;6.10;;;;;;;;;;6130853;23;20029;-82
